createdAt,value
2023-06-19T00:00:09.720Z,2.20
2023-06-19T00:02:14.907Z,1.92
2023-06-19T00:04:20.250Z,2.17
2023-06-19T00:06:25.999Z,1.60
2023-06-19T00:08:32.186Z,1.90
2023-06-19T00:10:37.362Z,1.90
2023-06-19T00:12:44.877Z,1.73
2023-06-19T00:14:53.913Z,2.08
2023-06-19T00:17:02.137Z,2.60
2023-06-19T00:19:07.247Z,2.03
2023-06-19T00:21:16.542Z,2.10
2023-06-19T00:23:21.630Z,2.33
2023-06-19T00:25:29.717Z,3.25
2023-06-19T00:27:39.769Z,2.88
2023-06-19T00:29:44.624Z,2.88
2023-06-19T00:31:59.864Z,2.70
2023-06-19T00:34:05.643Z,2.80
2023-06-19T00:36:14.057Z,2.60
2023-06-19T00:38:19.098Z,3.10
2023-06-19T00:40:31.217Z,3.30
2023-06-19T00:42:36.324Z,3.80
2023-06-19T00:44:41.459Z,3.80
2023-06-19T00:46:48.916Z,3.15
2023-06-19T00:49:01.877Z,3.38
2023-06-19T00:53:13.278Z,3.80
2023-06-19T00:55:22.422Z,3.92
2023-06-19T00:57:28.957Z,3.70
2023-06-19T00:59:34.845Z,4.07
2023-06-19T01:01:40.071Z,4.18
2023-06-19T01:03:45.859Z,4.10
2023-06-19T01:05:56.788Z,5.35
2023-06-19T01:08:13.901Z,4.50
2023-06-19T01:10:22.891Z,5.20
2023-06-19T01:12:35.007Z,6.25
2023-06-19T01:14:45.060Z,5.38
2023-06-19T01:16:51.025Z,6.85
2023-06-19T01:18:59.457Z,6.53
2023-06-19T01:21:16.668Z,6.55
2023-06-19T01:23:27.977Z,8.48
2023-06-19T01:25:33.084Z,8.52
2023-06-19T01:27:39.266Z,9.35
2023-06-19T01:29:44.275Z,10.75
2023-06-19T01:31:55.954Z,10.30
2023-06-19T01:34:05.482Z,10.93
2023-06-19T01:36:11.582Z,10.90
2023-06-19T01:38:18.477Z,12.13
2023-06-19T01:40:29.290Z,12.07
2023-06-19T01:42:34.618Z,11.65
2023-06-19T01:44:40.249Z,12.18
2023-06-19T01:46:45.464Z,14.70
2023-06-19T01:48:50.715Z,12.40
2023-06-19T01:50:55.817Z,13.20
2023-06-19T01:53:00.778Z,13.93
2023-06-19T01:55:05.873Z,13.60
2023-06-19T01:57:13.728Z,12.30
2023-06-19T01:59:21.529Z,12.18
2023-06-19T02:01:27.490Z,11.40
2023-06-19T02:03:32.883Z,11.82
2023-06-19T02:05:41.065Z,11.85
2023-06-19T02:07:46.547Z,10.95
2023-06-19T02:09:52.652Z,12.20
2023-06-19T02:12:00.728Z,10.80
2023-06-19T02:14:08.338Z,10.80
2023-06-19T02:16:13.466Z,10.02
2023-06-19T02:18:19.214Z,11.00
2023-06-19T02:20:26.210Z,11.57
2023-06-19T02:22:34.388Z,12.23
2023-06-19T02:24:41.037Z,14.95
2023-06-19T02:26:49.180Z,13.98
2023-06-19T02:28:54.560Z,15.00
2023-06-19T02:31:03.066Z,15.88
2023-06-19T02:33:09.073Z,13.98
2023-06-19T02:35:17.000Z,15.20
2023-06-19T02:37:22.357Z,16.42
2023-06-19T02:39:28.195Z,14.60
2023-06-19T02:41:33.306Z,15.13
2023-06-19T02:43:38.383Z,15.98
2023-06-19T02:45:43.733Z,14.63
2023-06-19T02:47:53.419Z,14.73
2023-06-19T02:50:01.226Z,14.43
2023-06-19T02:52:06.384Z,15.35
2023-06-19T02:54:11.420Z,15.40
2023-06-19T02:56:16.655Z,15.48
2023-06-19T02:58:21.958Z,15.70
2023-06-19T03:00:31.536Z,15.68
2023-06-19T03:02:37.344Z,16.85
2023-06-19T03:04:45.542Z,17.60
2023-06-19T03:06:51.401Z,19.42
2023-06-19T03:08:58.108Z,20.02
2023-06-19T03:11:05.505Z,21.00
2023-06-19T03:13:10.494Z,20.70
2023-06-19T03:15:15.839Z,21.67
2023-06-19T03:17:21.399Z,23.15
2023-06-19T03:19:26.555Z,22.30
2023-06-19T03:21:33.920Z,23.17
2023-06-19T03:23:38.852Z,25.00
2023-06-19T03:25:44.275Z,25.20
2023-06-19T03:27:49.293Z,24.15
2023-06-19T03:29:59.855Z,23.33
2023-06-19T03:32:04.710Z,18.23
2023-06-19T03:34:09.725Z,17.80
2023-06-19T03:36:14.779Z,16.88
2023-06-19T03:38:22.395Z,15.80
2023-06-19T03:40:28.927Z,15.52
2023-06-19T03:42:36.228Z,15.50
2023-06-19T03:44:42.024Z,14.63
2023-06-19T03:46:47.930Z,15.27
2023-06-19T03:48:52.851Z,14.38
2023-06-19T03:50:57.827Z,14.20
2023-06-19T03:53:02.813Z,11.20
2023-06-19T03:55:11.239Z,10.60
2023-06-19T03:57:16.508Z,10.98
2023-06-19T03:59:21.816Z,9.48
2023-06-19T04:01:27.897Z,7.78
2023-06-19T04:03:32.985Z,7.75
2023-06-19T04:05:38.155Z,8.82
2023-06-19T04:07:42.959Z,7.22
2023-06-19T04:09:47.938Z,8.30
2023-06-19T04:11:55.867Z,9.68
2023-06-19T04:14:00.861Z,8.57
2023-06-19T04:16:06.129Z,8.27
2023-06-19T04:18:11.163Z,9.98
2023-06-19T04:20:16.637Z,8.77
2023-06-19T04:22:21.900Z,10.38
2023-06-19T04:24:27.939Z,9.52
2023-06-19T04:26:32.949Z,9.90
2023-06-19T04:28:40.864Z,11.40
2023-06-19T04:30:45.985Z,13.05
2023-06-19T04:32:51.529Z,12.50
2023-06-19T04:34:56.758Z,12.52
2023-06-19T04:37:02.733Z,14.70
2023-06-19T04:39:07.962Z,11.82
2023-06-19T04:41:13.092Z,14.73
2023-06-19T04:43:18.317Z,13.27
2023-06-19T04:45:26.161Z,12.88
2023-06-19T04:47:43.631Z,13.57
2023-06-19T04:49:53.508Z,13.48
2023-06-19T04:51:59.756Z,14.85
2023-06-19T04:54:05.098Z,11.85
2023-06-19T04:56:10.364Z,15.40
2023-06-19T04:58:15.274Z,13.30
2023-06-19T05:00:28.216Z,13.43
2023-06-19T05:02:33.407Z,13.32
2023-06-19T05:04:38.604Z,14.18
2023-06-19T05:06:44.006Z,14.18
2023-06-19T05:08:48.969Z,14.77
2023-06-19T05:10:56.269Z,13.85
2023-06-19T05:13:01.772Z,15.25
2023-06-19T05:15:07.660Z,16.88
2023-06-19T05:17:15.556Z,19.30
2023-06-19T05:19:23.787Z,18.95
2023-06-19T05:21:29.468Z,17.23
2023-06-19T05:23:34.576Z,18.70
2023-06-19T05:25:39.630Z,17.08
2023-06-19T05:27:44.789Z,18.67
2023-06-19T05:29:50.202Z,17.38
2023-06-19T05:31:55.295Z,18.48
2023-06-19T05:34:03.252Z,18.50
2023-06-19T05:36:08.892Z,17.20
2023-06-19T05:38:13.911Z,17.27
2023-06-19T05:40:18.981Z,18.83
2023-06-19T05:42:26.986Z,17.73
2023-06-19T05:44:32.385Z,17.45
2023-06-19T05:46:37.563Z,16.75
2023-06-19T05:48:42.582Z,17.70
2023-06-19T05:50:50.388Z,17.13
2023-06-19T05:52:55.327Z,16.58
2023-06-19T05:55:02.031Z,16.25
2023-06-19T05:57:07.302Z,17.65
2023-06-19T05:59:12.390Z,17.35
2023-06-19T06:01:19.214Z,16.38
2023-06-19T06:03:25.313Z,17.45
2023-06-19T06:05:30.294Z,16.42
2023-06-19T06:07:39.735Z,15.57
2023-06-19T06:09:50.157Z,15.68
2023-06-19T06:11:55.238Z,16.65
2023-06-19T06:14:00.886Z,16.50
2023-06-19T06:16:05.912Z,15.07
2023-06-19T06:18:11.188Z,17.02
2023-06-19T06:20:16.518Z,14.98
2023-06-19T06:22:22.218Z,14.93
2023-06-19T06:24:33.815Z,17.38
2023-06-19T06:26:39.584Z,14.93
2023-06-19T06:28:45.046Z,15.18
2023-06-19T06:30:50.202Z,14.80
2023-06-19T06:32:55.203Z,15.10
2023-06-19T06:35:00.666Z,13.73
2023-06-19T06:37:07.007Z,15.30
2023-06-19T06:39:12.281Z,15.57
2023-06-19T06:41:22.709Z,14.90
2023-06-19T06:43:30.067Z,14.32
2023-06-19T06:45:35.107Z,14.07
2023-06-19T06:47:41.467Z,15.25
2023-06-19T06:49:48.638Z,14.90
2023-06-19T06:51:55.451Z,13.73
2023-06-19T06:54:03.831Z,14.07
2023-06-19T06:56:08.977Z,17.30
2023-06-19T06:58:18.698Z,15.43
2023-06-19T07:00:26.167Z,15.32
2023-06-19T07:02:31.573Z,14.32
2023-06-19T07:04:36.860Z,15.00
2023-06-19T07:06:41.806Z,16.08
2023-06-19T07:08:49.092Z,14.13
2023-06-19T07:10:57.147Z,15.35
2023-06-19T07:13:03.441Z,14.23
2023-06-19T07:15:12.590Z,14.60
2023-06-19T07:17:21.253Z,14.55
2023-06-19T07:19:26.393Z,14.80
2023-06-19T07:21:33.772Z,13.65
2023-06-19T07:23:38.772Z,14.80
2023-06-19T07:25:44.037Z,14.70
2023-06-19T07:27:49.194Z,15.07
2023-06-19T07:29:59.496Z,14.68
2023-06-19T07:32:07.676Z,13.38
2023-06-19T07:34:12.640Z,13.57
2023-06-19T07:36:17.849Z,14.27
2023-06-19T07:38:22.833Z,13.10
2023-06-19T07:40:28.367Z,13.23
2023-06-19T07:42:33.920Z,13.43
2023-06-19T07:44:38.918Z,13.68
2023-06-19T07:46:44.765Z,14.60
2023-06-19T07:48:52.387Z,14.00
2023-06-19T07:50:58.203Z,13.80
2023-06-19T07:53:04.562Z,12.43
2023-06-19T07:55:10.428Z,14.23
2023-06-19T07:57:15.343Z,12.85
2023-06-19T07:59:21.513Z,12.48
2023-06-19T08:01:26.612Z,14.40
2023-06-19T08:03:32.119Z,12.52
2023-06-19T08:05:40.453Z,13.02
2023-06-19T08:07:45.342Z,11.52
2023-06-19T08:10:00.332Z,12.10
2023-06-19T08:12:13.279Z,11.10
2023-06-19T08:14:18.156Z,12.13
2023-06-19T08:16:23.204Z,12.27
2023-06-19T08:18:28.989Z,10.70
2023-06-19T08:20:34.366Z,10.38
2023-06-19T08:22:41.940Z,10.70
2023-06-19T08:24:47.210Z,10.57
2023-06-19T08:26:53.127Z,11.43
2023-06-19T08:29:01.004Z,11.38
2023-06-19T08:31:06.081Z,11.18
2023-06-19T08:33:11.582Z,10.68
2023-06-19T08:35:16.565Z,11.55
2023-06-19T08:37:22.476Z,11.40
2023-06-19T08:39:30.733Z,13.00
2023-06-19T08:41:35.768Z,10.80
2023-06-19T08:43:42.739Z,11.25
2023-06-19T08:45:56.487Z,12.38
2023-06-19T08:48:05.155Z,12.65
2023-06-19T08:50:11.328Z,10.45
2023-06-19T08:52:16.609Z,11.50
2023-06-19T08:54:22.220Z,11.45
2023-06-19T08:56:30.523Z,11.45
2023-06-19T08:58:37.054Z,13.40
2023-06-19T09:00:42.035Z,13.23
2023-06-19T09:03:00.877Z,13.38
2023-06-19T09:05:19.073Z,11.50
2023-06-19T09:07:24.845Z,10.57
2023-06-19T09:09:31.173Z,10.18
2023-06-19T09:11:44.559Z,10.57
2023-06-19T09:14:01.100Z,11.50
2023-06-19T09:16:07.991Z,11.77
2023-06-19T09:18:15.669Z,11.27
2023-06-19T09:20:30.976Z,11.15
2023-06-19T09:22:36.206Z,10.40
2023-06-19T09:24:42.923Z,10.60
2023-06-19T09:26:50.830Z,10.38
2023-06-19T09:28:55.886Z,10.30
2023-06-19T09:31:04.314Z,10.75
2023-06-19T09:33:11.455Z,12.52
2023-06-19T09:35:16.793Z,11.45
2023-06-19T09:37:27.708Z,11.27
2023-06-19T09:39:35.109Z,10.45
2023-06-19T09:41:41.750Z,11.13
2023-06-19T09:43:51.655Z,10.05
2023-06-19T09:46:00.610Z,12.38
2023-06-19T09:48:05.907Z,10.48
2023-06-19T09:50:11.866Z,11.45
2023-06-19T09:52:17.163Z,12.98
2023-06-19T09:54:23.793Z,13.07
2023-06-19T09:56:30.108Z,13.90
2023-06-19T09:58:35.819Z,13.27
2023-06-19T10:00:45.378Z,13.13
2023-06-19T10:02:53.380Z,12.82
2023-06-19T10:05:00.856Z,13.07
2023-06-19T10:07:05.974Z,13.25
2023-06-19T10:09:12.637Z,13.43
2023-06-19T10:11:18.797Z,11.90
2023-06-19T10:13:23.856Z,11.20
2023-06-19T10:15:31.247Z,12.10
2023-06-19T10:17:38.835Z,11.25
2023-06-19T10:19:54.516Z,14.73
2023-06-19T10:22:01.606Z,12.85
2023-06-19T10:24:07.353Z,11.05
2023-06-19T10:26:12.769Z,10.05
2023-06-19T10:28:22.832Z,9.25
2023-06-19T10:30:28.253Z,8.88
2023-06-19T10:32:34.211Z,9.55
2023-06-19T10:34:41.897Z,9.93
2023-06-19T10:36:47.599Z,9.98
2023-06-19T10:38:53.192Z,10.30
2023-06-19T10:40:59.432Z,13.27
2023-06-19T10:43:05.096Z,15.70
2023-06-19T10:45:13.563Z,15.63
2023-06-19T10:47:19.215Z,16.02
2023-06-19T10:49:26.362Z,17.75
2023-06-19T10:51:38.467Z,16.13
2023-06-19T10:53:46.410Z,17.63
2023-06-19T10:55:54.314Z,17.00
2023-06-19T10:57:59.704Z,15.82
2023-06-19T11:00:07.127Z,13.70
2023-06-19T11:02:12.473Z,15.27
2023-06-19T11:04:20.287Z,13.07
2023-06-19T11:06:26.112Z,12.00
2023-06-19T11:08:34.534Z,10.90
2023-06-19T11:10:39.608Z,9.18
2023-06-19T11:12:47.241Z,9.75
2023-06-19T11:14:52.983Z,8.68
2023-06-19T11:16:58.293Z,8.85
2023-06-19T11:19:04.943Z,8.50
2023-06-19T11:21:10.097Z,8.45
2023-06-19T11:23:15.640Z,9.65
2023-06-19T11:25:23.556Z,9.52
2023-06-19T11:27:30.001Z,9.07
2023-06-19T11:29:36.739Z,9.63
2023-06-19T11:31:44.400Z,10.13
2023-06-19T11:34:00.366Z,11.00
2023-06-19T11:36:06.758Z,13.35
2023-06-19T11:38:12.031Z,12.25
2023-06-19T11:40:18.890Z,12.00
2023-06-19T11:42:26.789Z,11.80
2023-06-19T11:44:32.398Z,12.45
2023-06-19T11:46:38.353Z,12.50
2023-06-19T11:48:53.221Z,11.82
2023-06-19T11:51:09.440Z,10.40
2023-06-19T11:53:14.963Z,11.75
2023-06-19T11:55:20.307Z,14.38
2023-06-19T11:57:31.276Z,12.40
2023-06-19T11:59:36.820Z,14.52
2023-06-19T12:01:42.689Z,14.30
2023-06-19T12:03:47.693Z,11.02
2023-06-19T12:05:53.034Z,10.57
2023-06-19T12:08:07.634Z,11.55
2023-06-19T12:10:13.965Z,12.20
2023-06-19T12:12:18.992Z,11.88
2023-06-19T12:14:29.857Z,12.85
2023-06-19T12:16:36.219Z,12.70
2023-06-19T12:18:41.802Z,12.75
2023-06-19T12:20:48.726Z,13.05
2023-06-19T12:22:54.290Z,11.82
2023-06-19T12:25:02.879Z,11.57
2023-06-19T12:27:08.828Z,12.38
2023-06-19T12:29:13.922Z,11.75
2023-06-19T12:31:24.813Z,10.30
2023-06-19T12:33:34.392Z,10.15
2023-06-19T12:35:39.411Z,10.02
2023-06-19T12:37:44.458Z,10.43
2023-06-19T12:39:49.312Z,10.23
2023-06-19T12:41:54.540Z,9.75
2023-06-19T12:43:59.912Z,9.40
2023-06-19T12:46:05.997Z,8.43
2023-06-19T12:48:15.032Z,8.75
2023-06-19T12:50:20.503Z,8.70
2023-06-19T12:52:25.951Z,9.40
2023-06-19T12:54:31.175Z,9.02
2023-06-19T12:56:36.316Z,8.25
2023-06-19T12:58:41.268Z,8.73
2023-06-19T13:00:48.436Z,8.52
2023-06-19T13:02:53.875Z,8.60
2023-06-19T13:05:11.399Z,7.88
2023-06-19T13:07:16.975Z,8.32
2023-06-19T13:09:22.814Z,8.85
2023-06-19T13:11:30.008Z,7.97
2023-06-19T13:13:35.857Z,8.95
2023-06-19T13:15:42.978Z,8.45
2023-06-19T13:17:49.394Z,7.82
2023-06-19T13:20:00.363Z,7.05
2023-06-19T13:22:08.340Z,8.98
2023-06-19T13:24:13.784Z,8.45
2023-06-19T13:26:19.145Z,9.05
2023-06-19T13:28:27.070Z,8.73
2023-06-19T13:30:32.551Z,9.20
2023-06-19T13:32:37.612Z,8.20
2023-06-19T13:34:42.823Z,9.38
2023-06-19T13:36:48.900Z,8.50
2023-06-19T13:38:57.231Z,8.95
2023-06-19T13:41:04.064Z,8.23
2023-06-19T13:43:09.301Z,7.95
2023-06-19T13:45:15.497Z,7.00
2023-06-19T13:47:23.754Z,8.15
2023-06-19T13:49:31.294Z,7.63
2023-06-19T13:51:37.495Z,7.40
2023-06-19T13:53:45.802Z,7.35
2023-06-19T13:55:53.357Z,7.65
2023-06-19T13:57:59.519Z,7.22
2023-06-19T14:00:04.613Z,7.50
2023-06-19T14:02:11.935Z,7.35
2023-06-19T14:04:17.204Z,7.88
2023-06-19T14:06:22.289Z,7.53
2023-06-19T14:08:28.426Z,7.07
2023-06-19T14:10:34.119Z,7.00
2023-06-19T14:12:42.626Z,7.25
2023-06-19T14:14:47.697Z,7.60
2023-06-19T14:16:52.808Z,7.40
2023-06-19T14:19:00.785Z,7.20
2023-06-19T14:21:07.060Z,6.43
2023-06-19T14:23:12.173Z,6.97
2023-06-19T14:25:17.440Z,6.95
2023-06-19T14:27:22.648Z,7.57
2023-06-19T14:29:30.442Z,7.32
2023-06-19T14:31:36.891Z,6.78
2023-06-19T14:33:44.194Z,6.85
2023-06-19T14:35:51.463Z,6.97
2023-06-19T14:37:58.279Z,7.10
2023-06-19T14:40:03.958Z,6.57
2023-06-19T14:42:09.740Z,6.88
2023-06-19T14:44:15.009Z,7.32
2023-06-19T14:46:37.642Z,7.30
2023-06-19T14:48:43.904Z,6.63
2023-06-19T14:50:48.910Z,7.40
2023-06-19T14:52:56.969Z,8.00
2023-06-19T14:55:05.013Z,7.85
2023-06-19T14:57:10.861Z,6.85
2023-06-19T14:59:15.949Z,7.65
2023-06-19T15:01:26.963Z,7.28
2023-06-19T15:03:35.103Z,6.53
2023-06-19T15:05:41.324Z,6.43
2023-06-19T15:07:49.554Z,7.60
2023-06-19T15:09:57.021Z,8.05
2023-06-19T15:12:03.804Z,7.07
2023-06-19T15:14:09.164Z,7.20
2023-06-19T15:16:14.201Z,6.88
2023-06-19T15:18:23.399Z,5.97
2023-06-19T15:20:28.867Z,6.85
2023-06-19T15:22:34.107Z,7.75
2023-06-19T15:24:39.665Z,6.78
2023-06-19T15:26:44.841Z,6.63
2023-06-19T15:28:50.322Z,6.40
2023-06-19T15:30:55.461Z,7.30
2023-06-19T15:33:03.822Z,6.47
2023-06-19T15:35:12.072Z,7.05
2023-06-19T15:37:18.023Z,6.25
2023-06-19T15:39:23.171Z,7.25
2023-06-19T15:41:28.360Z,7.38
2023-06-19T15:43:36.753Z,6.72
2023-06-19T15:45:41.694Z,7.60
2023-06-19T15:47:47.115Z,7.50
2023-06-19T15:49:52.277Z,7.47
2023-06-19T15:52:00.551Z,6.97
2023-06-19T15:54:06.887Z,7.10
2023-06-19T15:56:12.103Z,7.60
2023-06-19T15:58:17.188Z,7.65
2023-06-19T16:00:23.120Z,6.60
2023-06-19T16:02:31.306Z,7.82
2023-06-19T16:04:37.140Z,7.03
2023-06-19T16:06:45.824Z,7.22
2023-06-19T16:08:58.020Z,6.97
2023-06-19T16:11:04.709Z,7.55
2023-06-19T16:13:09.925Z,7.15
2023-06-19T16:15:18.804Z,7.55
2023-06-19T16:17:23.875Z,7.38
2023-06-19T16:19:29.576Z,8.10
2023-06-19T16:21:34.574Z,7.78
2023-06-19T16:23:41.929Z,7.30
2023-06-19T16:25:50.465Z,6.57
2023-06-19T16:27:57.056Z,6.38
2023-06-19T16:30:04.400Z,6.55
2023-06-19T16:32:11.072Z,6.68
2023-06-19T16:34:16.522Z,5.97
2023-06-19T16:36:23.930Z,6.35
2023-06-19T16:38:32.669Z,7.40
2023-06-19T16:40:38.089Z,6.68
2023-06-19T16:42:46.118Z,7.28
2023-06-19T16:44:51.225Z,6.82
2023-06-19T16:46:57.528Z,6.82
2023-06-19T16:49:03.577Z,7.38
2023-06-19T16:51:08.765Z,7.20
2023-06-19T16:53:14.428Z,6.53
2023-06-19T16:55:23.645Z,6.38
2023-06-19T16:57:34.135Z,5.93
2023-06-19T16:59:41.978Z,5.93
2023-06-19T17:01:47.708Z,5.43
2023-06-19T17:03:52.891Z,5.90
2023-06-19T17:05:59.353Z,5.97
2023-06-19T17:08:04.495Z,5.90
2023-06-19T17:10:10.669Z,5.65
2023-06-19T17:12:16.485Z,5.70
2023-06-19T17:14:22.517Z,6.60
2023-06-19T17:16:30.511Z,6.15
2023-06-19T17:18:36.682Z,6.55
2023-06-19T17:20:42.468Z,6.13
2023-06-19T17:22:47.801Z,5.95
2023-06-19T17:24:53.031Z,6.07
2023-06-19T17:26:59.068Z,6.55
2023-06-19T17:29:05.698Z,6.05
2023-06-19T17:31:10.895Z,6.70
2023-06-19T17:33:19.558Z,6.38
2023-06-19T17:35:26.976Z,6.30
2023-06-19T17:37:32.074Z,5.85
2023-06-19T17:39:37.475Z,4.70
2023-06-19T17:41:42.803Z,5.47
2023-06-19T17:43:47.947Z,5.30
2023-06-19T17:45:53.165Z,4.65
2023-06-19T17:47:58.543Z,4.85
2023-06-19T17:50:07.596Z,5.93
2023-06-19T17:52:13.541Z,5.63
2023-06-19T17:54:19.731Z,5.28
2023-06-19T17:56:28.469Z,5.00
2023-06-19T17:58:33.976Z,4.72
2023-06-19T18:00:38.989Z,4.45
2023-06-19T18:02:44.263Z,5.13
2023-06-19T18:04:49.524Z,4.00
2023-06-19T18:06:57.333Z,4.72
2023-06-19T18:09:06.765Z,4.07
2023-06-19T18:11:12.000Z,5.15
2023-06-19T18:13:16.956Z,4.55
2023-06-19T18:15:26.261Z,4.15
2023-06-19T18:17:32.231Z,4.57
2023-06-19T18:19:37.499Z,4.95
2023-06-19T18:21:42.752Z,5.03
2023-06-19T18:23:50.878Z,4.75
2023-06-19T18:25:57.717Z,5.43
2023-06-19T18:28:04.064Z,4.45
2023-06-19T18:30:11.350Z,4.75
2023-06-19T18:32:16.612Z,4.43
2023-06-19T18:34:21.721Z,4.50
2023-06-19T18:36:28.329Z,3.97
2023-06-19T18:38:34.200Z,4.20
2023-06-19T18:40:43.113Z,3.78
2023-06-19T18:42:48.339Z,5.18
2023-06-19T18:44:54.006Z,4.03
2023-06-19T18:47:02.529Z,6.13
2023-06-19T18:49:07.718Z,4.40
2023-06-19T18:51:14.972Z,5.47
2023-06-19T18:53:23.377Z,4.13
2023-06-19T18:55:32.338Z,4.35
2023-06-19T18:57:40.187Z,4.40
2023-06-19T18:59:45.208Z,4.20
2023-06-19T19:01:50.330Z,4.18
2023-06-19T19:03:56.819Z,4.32
2023-06-19T19:06:04.276Z,3.70
2023-06-19T19:08:12.050Z,4.50
2023-06-19T19:10:17.317Z,4.05
2023-06-19T19:12:22.421Z,4.30
2023-06-19T19:14:30.116Z,5.32
2023-06-19T19:16:38.184Z,4.60
2023-06-19T19:19:05.489Z,4.13
2023-06-19T19:21:11.709Z,4.70
2023-06-19T19:23:18.523Z,4.78
2023-06-19T19:25:27.125Z,4.20
2023-06-19T19:27:35.105Z,4.60
2023-06-19T19:29:43.264Z,4.47
2023-06-19T19:31:48.558Z,4.97
2023-06-19T19:33:55.576Z,4.05
2023-06-19T19:36:02.855Z,4.20
2023-06-19T19:38:07.894Z,5.32
2023-06-19T19:40:14.845Z,4.20
2023-06-19T19:42:22.901Z,5.10
2023-06-19T19:44:27.956Z,3.55
2023-06-19T19:46:36.978Z,3.63
2023-06-19T19:48:43.355Z,4.13
2023-06-19T19:50:48.355Z,3.80
2023-06-19T19:52:56.275Z,3.60
2023-06-19T19:55:04.659Z,3.90
2023-06-19T19:57:10.623Z,4.13
2023-06-19T19:59:16.390Z,4.55
2023-06-19T20:01:24.920Z,4.00
2023-06-19T20:03:34.210Z,4.03
2023-06-19T20:05:39.469Z,4.32
2023-06-19T20:07:51.386Z,4.38
2023-06-19T20:09:56.550Z,4.00
2023-06-19T20:12:20.833Z,4.20
2023-06-19T20:14:26.623Z,4.30
2023-06-19T20:16:35.933Z,4.68
2023-06-19T20:18:45.734Z,4.25
2023-06-19T20:20:51.343Z,4.00
2023-06-19T20:22:58.435Z,3.95
2023-06-19T20:25:05.741Z,4.88
2023-06-19T20:27:11.690Z,3.92
2023-06-19T20:29:16.747Z,4.25
2023-06-19T20:31:23.468Z,4.13
2023-06-19T20:33:29.070Z,4.00
2023-06-19T20:35:37.324Z,3.90
2023-06-19T20:37:42.741Z,4.03
2023-06-19T20:39:48.254Z,3.97
2023-06-19T20:41:53.344Z,4.20
2023-06-19T20:43:58.529Z,4.45
2023-06-19T20:46:04.385Z,3.90
2023-06-19T20:48:09.492Z,4.30
2023-06-19T20:50:15.406Z,4.03
2023-06-19T20:52:23.249Z,3.90
2023-06-19T20:54:30.863Z,3.92
2023-06-19T20:56:37.955Z,3.60
2023-06-19T20:58:45.406Z,4.53
2023-06-19T21:00:53.960Z,4.28
2023-06-19T21:02:59.767Z,3.97
2023-06-19T21:05:05.524Z,3.75
2023-06-19T21:07:10.756Z,4.07
2023-06-19T21:09:20.064Z,3.88
2023-06-19T21:11:29.552Z,4.35
2023-06-19T21:13:39.346Z,3.72
2023-06-19T21:15:55.697Z,4.68
2023-06-19T21:18:04.340Z,4.05
2023-06-19T21:20:15.613Z,4.43
2023-06-19T21:22:52.389Z,3.65
2023-06-19T21:25:00.394Z,4.28
2023-06-19T21:27:05.870Z,4.00
2023-06-19T21:29:10.946Z,4.00
2023-06-19T21:31:18.577Z,3.75
2023-06-19T21:33:27.806Z,3.97
2023-06-19T21:35:34.027Z,4.22
2023-06-19T21:37:38.969Z,4.10
2023-06-19T21:39:45.365Z,4.40
2023-06-19T21:41:53.185Z,3.92
2023-06-19T21:43:58.528Z,4.38
2023-06-19T21:46:03.513Z,3.92
2023-06-19T21:48:09.637Z,4.57
2023-06-19T21:50:14.884Z,3.83
2023-06-19T21:52:19.968Z,4.18
2023-06-19T21:54:25.056Z,4.53
2023-06-19T21:56:30.176Z,4.68
2023-06-19T21:58:39.594Z,4.43
2023-06-19T22:00:48.732Z,4.60
2023-06-19T22:02:56.960Z,4.60
2023-06-19T22:05:10.467Z,4.45
2023-06-19T22:07:23.202Z,4.95
2023-06-19T22:09:32.150Z,5.47
2023-06-19T22:11:40.329Z,5.00
2023-06-19T22:14:52.116Z,4.68
2023-06-19T22:17:00.077Z,5.15
2023-06-19T22:19:07.501Z,5.22
2023-06-19T22:21:12.963Z,5.32
2023-06-19T22:23:18.378Z,5.30
2023-06-19T22:25:23.383Z,5.07
2023-06-19T22:27:31.046Z,6.05
2023-06-19T22:29:39.257Z,4.40
2023-06-19T22:31:44.563Z,5.30
2023-06-19T22:33:53.488Z,5.95
2023-06-19T22:36:00.466Z,6.28
2023-06-19T22:38:08.568Z,5.93
2023-06-19T22:40:15.163Z,6.10
2023-06-19T22:42:20.466Z,6.00
2023-06-19T22:44:25.935Z,5.63
2023-06-19T22:46:31.217Z,5.75
2023-06-19T22:48:37.652Z,6.38
2023-06-19T22:50:47.119Z,6.05
2023-06-19T22:52:52.599Z,6.53
2023-06-19T22:55:00.420Z,6.10
2023-06-19T22:57:05.740Z,6.97
2023-06-19T22:59:10.835Z,6.13
2023-06-19T23:01:15.947Z,5.72
2023-06-19T23:03:22.876Z,7.47
2023-06-19T23:05:28.346Z,6.90
2023-06-19T23:07:36.746Z,6.25
2023-06-19T23:09:44.874Z,6.15
2023-06-19T23:11:52.027Z,6.10
2023-06-19T23:13:59.765Z,6.40
2023-06-19T23:16:06.483Z,6.60
2023-06-19T23:18:15.829Z,6.47
2023-06-19T23:20:21.261Z,6.20
2023-06-19T23:22:26.415Z,6.00
2023-06-19T23:24:34.166Z,7.30
2023-06-19T23:26:40.245Z,7.10
2023-06-19T23:28:45.328Z,5.82
2023-06-19T23:30:54.815Z,6.30
2023-06-19T23:33:00.044Z,6.53
2023-06-19T23:35:07.653Z,5.90
2023-06-19T23:37:12.811Z,6.25
2023-06-19T23:39:18.044Z,6.10
2023-06-19T23:41:26.226Z,6.05
2023-06-19T23:43:31.405Z,6.70
2023-06-19T23:45:36.998Z,6.82
2023-06-19T23:47:42.700Z,7.07
2023-06-19T23:49:50.795Z,6.75
2023-06-19T23:51:55.812Z,6.57
2023-06-19T23:54:00.827Z,6.05
2023-06-19T23:56:05.899Z,6.70
2023-06-19T23:58:14.158Z,6.57
